createdAt,value
2018-08-09T00:00:15.094Z,75.51
2018-08-09T00:01:15.090Z,75.51
2018-08-09T00:02:15.093Z,75.99
2018-08-09T00:03:15.095Z,75.99
2018-08-09T00:04:15.088Z,76.09
2018-08-09T00:05:15.091Z,75.71
2018-08-09T00:06:15.082Z,75.90
2018-08-09T00:07:15.080Z,76.38
2018-08-09T00:08:15.077Z,76.38
2018-08-09T00:09:15.081Z,75.99
2018-08-09T00:10:15.077Z,76.67
2018-08-09T00:11:15.076Z,77.25
2018-08-09T00:12:15.079Z,76.57
2018-08-09T00:13:15.073Z,77.25
2018-08-09T00:14:15.071Z,76.96
2018-08-09T00:15:15.066Z,77.25
2018-08-09T00:16:15.069Z,77.25
2018-08-09T00:17:15.064Z,77.69
2018-08-09T00:18:15.063Z,77.78
2018-08-09T00:19:15.063Z,77.83
2018-08-09T00:20:15.061Z,77.88
2018-08-09T00:21:15.058Z,78.36
2018-08-09T00:22:15.057Z,78.75
2018-08-09T00:23:15.053Z,78.46
2018-08-09T00:24:15.054Z,79.13
2018-08-09T00:25:15.054Z,79.52
2018-08-09T00:26:15.052Z,79.33
2018-08-09T00:27:15.048Z,79.23
2018-08-09T00:28:15.050Z,79.71
2018-08-09T00:29:15.041Z,79.61
2018-08-09T00:30:15.043Z,79.71
2018-08-09T00:31:15.036Z,79.81
2018-08-09T00:32:15.039Z,80.00
2018-08-09T00:33:15.036Z,79.58
2018-08-09T00:34:15.035Z,79.81
2018-08-09T00:35:15.033Z,79.90
2018-08-09T00:36:15.032Z,79.81
2018-08-09T00:37:15.030Z,79.96
2018-08-09T00:38:15.023Z,80.10
2018-08-09T00:39:15.024Z,80.00
2018-08-09T00:40:15.022Z,79.90
2018-08-09T00:41:15.029Z,80.29
2018-08-09T00:42:15.019Z,79.90
2018-08-09T00:43:15.019Z,79.96
2018-08-09T00:44:15.015Z,80.38
2018-08-09T00:45:15.010Z,80.58
2018-08-09T00:46:15.034Z,80.68
2018-08-09T00:47:15.010Z,80.77
2018-08-09T00:48:15.013Z,80.54
2018-08-09T00:49:15.009Z,80.87
2018-08-09T00:50:15.023Z,80.68
2018-08-09T00:51:15.003Z,80.68
2018-08-09T00:52:14.997Z,80.38
2018-08-09T00:53:14.996Z,80.68
2018-08-09T00:54:14.998Z,80.96
2018-08-09T00:55:14.992Z,80.77
2018-08-09T00:56:14.992Z,80.58
2018-08-09T00:57:14.990Z,80.96
2018-08-09T00:58:14.988Z,80.63
2018-08-09T00:59:14.985Z,80.38
2018-08-09T01:00:14.983Z,80.87
2018-08-09T01:01:14.984Z,80.58
2018-08-09T01:02:14.981Z,80.77
2018-08-09T01:03:14.986Z,80.29
2018-08-09T01:04:14.982Z,80.68
2018-08-09T01:05:14.976Z,80.58
2018-08-09T01:06:14.971Z,81.54
2018-08-09T01:07:14.973Z,81.16
2018-08-09T01:08:14.972Z,80.96
2018-08-09T01:09:14.966Z,81.35
2018-08-09T01:10:14.973Z,81.45
2018-08-09T01:11:14.963Z,81.45
2018-08-09T01:12:14.963Z,81.35
2018-08-09T01:13:14.959Z,81.25
2018-08-09T01:14:14.956Z,81.35
2018-08-09T01:15:14.958Z,81.35
2018-08-09T01:16:14.950Z,80.73
2018-08-09T01:17:14.952Z,81.25
2018-08-09T01:18:14.961Z,81.35
2018-08-09T01:19:14.970Z,81.35
2018-08-09T01:20:14.943Z,81.54
2018-08-09T01:21:14.946Z,81.16
2018-08-09T01:22:14.942Z,81.06
2018-08-09T01:23:14.943Z,81.50
2018-08-09T01:24:35.970Z,81.30
2018-08-09T01:25:14.942Z,81.35
2018-08-09T01:26:14.936Z,81.98
2018-08-09T01:27:14.934Z,81.88
2018-08-09T01:28:14.940Z,81.79
2018-08-09T01:29:14.933Z,82.02
2018-08-09T01:30:14.932Z,81.88
2018-08-09T01:31:14.927Z,81.79
2018-08-09T01:32:14.930Z,82.37
2018-08-09T01:33:14.924Z,81.50
2018-08-09T01:34:14.919Z,81.79
2018-08-09T01:35:14.919Z,82.46
2018-08-09T01:36:14.924Z,81.60
2018-08-09T01:37:14.918Z,82.27
2018-08-09T01:38:14.917Z,82.56
2018-08-09T01:39:14.917Z,82.46
2018-08-09T01:40:14.906Z,82.27
2018-08-09T01:41:14.906Z,82.65
2018-08-09T01:42:14.905Z,82.27
2018-08-09T01:43:14.904Z,82.56
2018-08-09T01:44:14.900Z,82.46
2018-08-09T01:45:14.907Z,82.37
2018-08-09T01:46:14.899Z,82.85
2018-08-09T01:47:14.898Z,82.75
2018-08-09T01:48:14.895Z,82.75
2018-08-09T01:49:14.892Z,81.98
2018-08-09T01:50:14.891Z,82.75
2018-08-09T01:51:14.895Z,83.14
2018-08-09T01:52:14.884Z,83.04
2018-08-09T01:53:14.886Z,83.52
2018-08-09T01:54:14.884Z,83.39
2018-08-09T01:55:14.878Z,83.81
2018-08-09T01:56:14.879Z,83.33
2018-08-09T01:57:14.874Z,84.00
2018-08-09T01:58:14.873Z,83.29
2018-08-09T01:59:14.874Z,83.29
2018-08-09T02:00:14.871Z,83.67
2018-08-09T02:01:14.871Z,84.34
2018-08-09T02:02:14.871Z,83.77
2018-08-09T02:03:14.861Z,84.16
2018-08-09T02:04:14.861Z,84.44
2018-08-09T02:05:14.861Z,83.96
2018-08-09T02:06:14.875Z,83.96
2018-08-09T02:07:14.875Z,84.06
2018-08-09T02:08:14.857Z,84.34
2018-08-09T02:09:14.850Z,84.06
2018-08-09T02:10:14.852Z,84.44
2018-08-09T02:11:14.846Z,83.86
2018-08-09T02:12:14.852Z,84.16
2018-08-09T02:13:14.847Z,83.48
2018-08-09T02:14:14.845Z,83.96
2018-08-09T02:15:14.838Z,84.34
2018-08-09T02:16:14.837Z,84.34
2018-08-09T02:17:14.876Z,84.34
2018-08-09T02:18:14.830Z,84.34
2018-08-09T02:19:14.830Z,84.25
2018-08-09T02:20:14.831Z,84.63
2018-08-09T02:21:14.829Z,84.44
2018-08-09T02:22:14.825Z,84.34
2018-08-09T02:23:14.843Z,84.16
2018-08-09T02:24:14.818Z,84.83
2018-08-09T02:25:14.819Z,84.92
2018-08-09T02:26:14.823Z,84.92
2018-08-09T02:27:14.815Z,85.11
2018-08-09T02:28:14.814Z,84.83
2018-08-09T02:29:14.811Z,85.27
2018-08-09T02:30:14.807Z,85.31
2018-08-09T02:31:14.807Z,85.40
2018-08-09T02:32:14.805Z,84.73
2018-08-09T02:33:14.801Z,84.50
2018-08-09T02:34:14.798Z,85.40
2018-08-09T02:35:14.796Z,85.36
2018-08-09T02:36:14.797Z,85.36
2018-08-09T02:37:14.795Z,85.65
2018-08-09T02:38:14.788Z,85.65
2018-08-09T02:39:14.786Z,85.27
2018-08-09T02:40:14.786Z,85.55
2018-08-09T02:41:14.789Z,85.75
2018-08-09T02:42:14.787Z,86.32
2018-08-09T02:43:14.784Z,86.04
2018-08-09T02:44:14.778Z,86.13
2018-08-09T02:45:14.779Z,86.13
2018-08-09T02:46:14.774Z,86.13
2018-08-09T02:47:14.770Z,86.71
2018-08-09T02:48:14.773Z,86.90
2018-08-09T02:49:14.763Z,86.71
2018-08-09T02:50:14.762Z,86.90
2018-08-09T02:51:14.761Z,86.80
2018-08-09T02:52:14.754Z,86.71
2018-08-09T02:53:14.756Z,86.71
2018-08-09T02:54:14.755Z,86.99
2018-08-09T02:55:14.749Z,86.61
2018-08-09T02:56:14.755Z,86.61
2018-08-09T02:57:14.750Z,86.90
2018-08-09T02:58:14.748Z,86.99
2018-08-09T02:59:14.744Z,86.99
2018-08-09T03:00:14.737Z,87.09
2018-08-09T03:01:14.743Z,86.99
2018-08-09T03:02:14.731Z,86.52
2018-08-09T03:03:14.730Z,87.29
2018-08-09T03:04:14.728Z,87.19
2018-08-09T03:05:14.744Z,86.99
2018-08-09T03:06:14.728Z,86.99
2018-08-09T03:07:14.720Z,87.48
2018-08-09T03:08:14.721Z,87.29
2018-08-09T03:09:14.719Z,87.09
2018-08-09T03:10:14.718Z,87.29
2018-08-09T03:11:14.717Z,86.61
2018-08-09T03:12:14.708Z,86.61
2018-08-09T03:13:14.753Z,86.80
2018-08-09T03:14:14.704Z,86.99
2018-08-09T03:15:14.704Z,86.80
2018-08-09T03:16:14.703Z,86.71
2018-08-09T03:17:14.735Z,86.80
2018-08-09T03:18:14.698Z,87.48
2018-08-09T03:19:14.705Z,87.29
2018-08-09T03:20:14.694Z,87.57
2018-08-09T03:21:14.690Z,87.43
2018-08-09T03:22:14.684Z,87.96
2018-08-09T03:23:14.682Z,87.82
2018-08-09T03:24:14.721Z,87.82
2018-08-09T03:25:14.681Z,87.72
2018-08-09T03:26:14.685Z,88.20
2018-08-09T03:27:14.678Z,88.20
2018-08-09T03:28:14.672Z,88.20
2018-08-09T03:29:14.673Z,88.01
2018-08-09T03:30:14.669Z,88.10
2018-08-09T03:31:14.665Z,88.39
2018-08-09T03:32:14.662Z,88.59
2018-08-09T03:33:14.662Z,88.68
2018-08-09T03:34:14.654Z,88.39
2018-08-09T03:35:14.655Z,88.39
2018-08-09T03:36:14.655Z,88.59
2018-08-09T03:37:14.651Z,88.39
2018-08-09T03:38:14.655Z,88.59
2018-08-09T03:39:14.647Z,88.39
2018-08-09T03:40:14.645Z,88.25
2018-08-09T03:41:14.646Z,88.49
2018-08-09T03:42:14.639Z,88.54
2018-08-09T03:43:14.643Z,88.64
2018-08-09T03:44:14.634Z,88.73
2018-08-09T03:45:14.627Z,88.39
2018-08-09T03:46:14.628Z,88.35
2018-08-09T03:47:14.634Z,88.93
2018-08-09T03:48:14.641Z,89.22
2018-08-09T03:49:14.642Z,89.22
2018-08-09T03:50:14.624Z,89.22
2018-08-09T03:51:14.621Z,88.93
2018-08-09T03:52:14.623Z,88.54
2018-08-09T03:53:14.613Z,89.02
2018-08-09T03:54:14.605Z,89.02
2018-08-09T03:55:14.601Z,89.12
2018-08-09T03:56:14.603Z,88.45
2018-08-09T03:57:14.598Z,88.35
2018-08-09T03:58:14.654Z,89.12
2018-08-09T03:59:14.598Z,88.93
2018-08-09T04:00:14.592Z,87.49
2018-08-09T04:01:14.598Z,87.39
2018-08-09T04:02:14.595Z,87.39
2018-08-09T04:03:14.596Z,87.92
2018-08-09T04:04:14.587Z,87.68
2018-08-09T04:05:14.577Z,88.39
2018-08-09T04:06:14.575Z,88.06
2018-08-09T04:07:14.570Z,87.96
2018-08-09T04:08:14.573Z,87.77
2018-08-09T04:09:14.573Z,87.29
2018-08-09T04:10:14.570Z,87.34
2018-08-09T04:11:14.564Z,87.53
2018-08-09T04:12:14.564Z,88.20
2018-08-09T04:13:14.562Z,87.58
2018-08-09T04:14:14.562Z,87.87
2018-08-09T04:15:14.557Z,88.35
2018-08-09T04:16:14.551Z,88.35
2018-08-09T04:17:14.553Z,88.25
2018-08-09T04:18:14.543Z,88.20
2018-08-09T04:19:14.543Z,88.10
2018-08-09T04:20:14.561Z,88.35
2018-08-09T04:21:14.542Z,88.87
2018-08-09T04:22:14.541Z,88.10
2018-08-09T04:23:14.536Z,88.64
2018-08-09T04:24:14.534Z,88.59
2018-08-09T04:25:14.528Z,87.96
2018-08-09T04:26:14.522Z,88.45
2018-08-09T04:27:14.522Z,88.35
2018-08-09T04:28:14.523Z,88.16
2018-08-09T04:29:14.518Z,87.96
2018-08-09T04:30:14.516Z,88.35
2018-08-09T04:31:14.514Z,88.45
2018-08-09T04:32:14.508Z,88.35
2018-08-09T04:33:14.512Z,88.10
2018-08-09T04:34:14.501Z,88.59
2018-08-09T04:35:14.500Z,88.20
2018-08-09T04:36:14.501Z,88.20
2018-08-09T04:37:14.501Z,88.20
2018-08-09T04:38:14.497Z,88.39
2018-08-09T04:39:14.492Z,88.35
2018-08-09T04:40:14.491Z,88.45
2018-08-09T04:41:14.487Z,88.54
2018-08-09T04:42:14.485Z,88.25
2018-08-09T04:43:14.485Z,88.25
2018-08-09T04:44:14.501Z,88.06
2018-08-09T04:45:14.478Z,88.16
2018-08-09T04:46:14.478Z,88.45
2018-08-09T04:47:14.471Z,88.16
2018-08-09T04:48:14.470Z,88.25
2018-08-09T04:49:14.503Z,88.25
2018-08-09T04:50:14.468Z,88.16
2018-08-09T04:51:14.465Z,88.35
2018-08-09T04:52:14.461Z,88.68
2018-08-09T04:53:14.460Z,88.16
2018-08-09T04:54:14.459Z,88.25
2018-08-09T04:55:14.452Z,88.30
2018-08-09T04:56:14.476Z,88.30
2018-08-09T04:57:14.449Z,88.01
2018-08-09T04:58:14.502Z,87.62
2018-08-09T04:59:14.445Z,87.62
2018-08-09T05:00:14.443Z,88.01
2018-08-09T05:01:14.438Z,87.82
2018-08-09T05:02:14.434Z,87.24
2018-08-09T05:03:14.431Z,87.15
2018-08-09T05:04:14.432Z,87.62
2018-08-09T05:05:14.427Z,87.34
2018-08-09T05:06:14.430Z,87.24
2018-08-09T05:07:14.429Z,87.15
2018-08-09T05:08:14.446Z,87.24
2018-08-09T05:09:14.420Z,86.85
2018-08-09T05:10:14.466Z,86.85
2018-08-09T05:11:14.412Z,86.76
2018-08-09T05:12:14.413Z,87.24
2018-08-09T05:13:14.409Z,87.53
2018-08-09T05:14:14.407Z,87.53
2018-08-09T05:15:14.412Z,87.53
2018-08-09T05:16:14.405Z,87.15
2018-08-09T05:17:14.401Z,87.24
2018-08-09T05:18:14.399Z,86.66
2018-08-09T05:19:14.393Z,86.57
2018-08-09T05:20:14.394Z,86.57
2018-08-09T05:21:14.392Z,86.95
2018-08-09T05:22:14.390Z,86.85
2018-08-09T05:23:14.448Z,86.76
2018-08-09T05:24:14.383Z,86.76
2018-08-09T05:25:14.379Z,85.99
2018-08-09T05:26:14.381Z,86.28
2018-08-09T05:27:14.378Z,86.28
2018-08-09T05:28:14.385Z,85.32
2018-08-09T05:29:14.377Z,85.22
2018-08-09T05:30:14.372Z,85.36
2018-08-09T05:31:14.395Z,85.36
2018-08-09T05:32:14.386Z,85.55
2018-08-09T05:33:14.362Z,85.36
2018-08-09T05:34:14.367Z,85.55
2018-08-09T05:35:14.359Z,84.98
2018-08-09T05:36:14.357Z,84.50
2018-08-09T05:37:14.358Z,85.07
2018-08-09T05:38:14.349Z,84.98
2018-08-09T05:39:14.347Z,85.07
2018-08-09T05:40:14.359Z,84.40
2018-08-09T05:41:14.352Z,84.30
2018-08-09T05:42:14.350Z,84.21
2018-08-09T05:43:14.348Z,84.30
2018-08-09T05:44:14.462Z,84.69
2018-08-09T05:45:14.357Z,84.40
2018-08-09T05:46:14.337Z,84.78
2018-08-09T05:47:14.334Z,84.11
2018-08-09T05:48:14.334Z,84.69
2018-08-09T05:49:14.330Z,84.30
2018-08-09T05:50:14.328Z,84.69
2018-08-09T05:51:14.345Z,84.50
2018-08-09T05:52:14.340Z,84.59
2018-08-09T05:53:14.383Z,84.50
2018-08-09T05:54:14.322Z,84.83
2018-08-09T05:55:14.318Z,84.40
2018-08-09T05:56:14.317Z,84.21
2018-08-09T05:57:14.313Z,84.44
2018-08-09T05:58:14.309Z,84.54
2018-08-09T05:59:14.325Z,84.34
2018-08-09T06:00:14.306Z,83.77
2018-08-09T06:01:14.310Z,83.86
2018-08-09T06:02:14.304Z,83.96
2018-08-09T06:03:14.302Z,83.96
2018-08-09T06:04:14.316Z,83.14
2018-08-09T06:05:14.306Z,82.42
2018-08-09T06:06:14.302Z,82.75
2018-08-09T06:07:14.295Z,82.75
2018-08-09T06:08:14.295Z,82.71
2018-08-09T06:09:14.296Z,82.56
2018-08-09T06:10:14.284Z,83.04
2018-08-09T06:11:14.283Z,83.09
2018-08-09T06:12:14.284Z,82.65
2018-08-09T06:13:14.281Z,82.94
2018-08-09T06:14:14.293Z,82.94
2018-08-09T06:15:14.293Z,83.72
2018-08-09T06:16:14.287Z,82.56
2018-08-09T06:17:14.279Z,82.65
2018-08-09T06:18:14.272Z,82.56
2018-08-09T06:19:14.284Z,82.85
2018-08-09T06:20:14.271Z,82.85
2018-08-09T06:21:14.265Z,82.56
2018-08-09T06:22:14.267Z,82.56
2018-08-09T06:23:14.269Z,82.46
2018-08-09T06:24:14.300Z,82.17
2018-08-09T06:25:14.260Z,82.56
2018-08-09T06:26:14.269Z,82.65
2018-08-09T06:27:14.260Z,82.56
2018-08-09T06:28:14.266Z,82.17
2018-08-09T06:29:14.257Z,82.85
2018-08-09T06:30:14.252Z,82.85
2018-08-09T06:31:14.255Z,82.65
2018-08-09T06:32:14.248Z,82.75
2018-08-09T06:33:14.247Z,82.94
2018-08-09T06:34:14.248Z,82.85
2018-08-09T06:35:14.245Z,82.85
2018-08-09T06:36:14.243Z,82.56
2018-08-09T06:37:14.243Z,82.94
2018-08-09T06:38:14.242Z,82.85
2018-08-09T06:39:14.235Z,82.17
2018-08-09T06:40:14.271Z,82.56
2018-08-09T06:41:14.241Z,82.65
2018-08-09T06:42:14.232Z,82.60
2018-08-09T06:43:14.233Z,81.93
2018-08-09T06:44:14.231Z,81.63
2018-08-09T06:45:14.238Z,81.98
2018-08-09T06:46:14.230Z,82.27
2018-08-09T06:47:14.222Z,82.21
2018-08-09T06:48:14.226Z,82.41
2018-08-09T06:49:14.224Z,82.60
2018-08-09T06:50:14.345Z,82.12
2018-08-09T06:51:14.876Z,81.83
2018-08-09T06:52:14.560Z,81.93
2018-08-09T06:53:14.360Z,81.83
2018-08-09T06:54:14.300Z,82.12
2018-08-09T06:55:14.214Z,81.73
2018-08-09T06:56:14.425Z,82.60
2018-08-09T06:57:14.331Z,81.73
2018-08-09T06:58:14.293Z,81.63
2018-08-09T06:59:14.328Z,81.83
2018-08-09T07:00:14.236Z,81.73
2018-08-09T07:01:14.208Z,82.12
2018-08-09T07:02:14.209Z,81.63
2018-08-09T07:03:14.212Z,82.50
2018-08-09T07:04:14.202Z,81.73
2018-08-09T07:05:14.212Z,82.60
2018-08-09T07:06:14.207Z,81.93
2018-08-09T07:07:14.229Z,81.73
2018-08-09T07:08:14.201Z,81.93
2018-08-09T07:09:14.198Z,82.02
2018-08-09T07:10:14.192Z,81.93
2018-08-09T07:11:14.189Z,81.54
2018-08-09T07:12:14.204Z,81.93
2018-08-09T07:13:14.199Z,82.02
2018-08-09T07:14:14.258Z,81.73
2018-08-09T07:15:14.240Z,81.83
2018-08-09T07:16:14.197Z,82.02
2018-08-09T07:17:14.209Z,81.73
2018-08-09T07:18:14.208Z,81.79
2018-08-09T07:19:14.207Z,82.60
2018-08-09T07:20:14.230Z,82.50
2018-08-09T07:21:14.180Z,82.85
2018-08-09T07:22:14.173Z,82.75
2018-08-09T07:23:14.202Z,82.75
2018-08-09T07:24:14.196Z,82.56
2018-08-09T07:25:14.184Z,82.75
2018-08-09T07:26:14.176Z,82.75
2018-08-09T07:27:14.166Z,82.50
2018-08-09T07:28:14.189Z,82.98
2018-08-09T07:29:14.180Z,82.98
2018-08-09T07:30:14.173Z,82.94
2018-08-09T07:31:14.179Z,82.79
2018-08-09T07:32:14.163Z,83.37
2018-08-09T07:33:14.161Z,82.89
2018-08-09T07:34:14.158Z,82.79
2018-08-09T07:35:14.151Z,82.98
2018-08-09T07:36:14.154Z,82.98
2018-08-09T07:37:14.154Z,82.64
2018-08-09T07:38:14.164Z,82.64
2018-08-09T07:39:14.165Z,81.96
2018-08-09T07:40:14.150Z,81.58
2018-08-09T07:41:14.144Z,81.20
2018-08-09T07:42:14.148Z,81.20
2018-08-09T07:43:14.189Z,81.68
2018-08-09T07:44:14.146Z,81.29
2018-08-09T07:45:14.143Z,81.96
2018-08-09T07:46:14.140Z,82.49
2018-08-09T07:47:14.148Z,81.72
2018-08-09T07:48:14.162Z,81.52
2018-08-09T07:49:14.138Z,81.37
2018-08-09T07:50:14.166Z,80.12
2018-08-09T07:51:14.157Z,79.68
2018-08-09T07:52:14.135Z,78.42
2018-08-09T07:53:15.084Z,79.43
2018-08-09T07:54:14.144Z,77.69
2018-08-09T07:55:14.140Z,77.40
2018-08-09T07:56:14.170Z,76.24
2018-08-09T07:57:14.153Z,76.18
2018-08-09T07:58:14.139Z,76.53
2018-08-09T07:59:14.142Z,76.24
2018-08-09T08:00:14.143Z,76.34
2018-08-09T08:01:14.150Z,75.09
2018-08-09T08:02:14.151Z,76.43
2018-08-09T08:03:15.087Z,75.85
2018-08-09T08:04:14.149Z,76.24
2018-08-09T08:05:14.144Z,76.98
2018-08-09T08:06:14.274Z,76.50
2018-08-09T08:07:14.152Z,76.10
2018-08-09T08:08:15.130Z,76.20
2018-08-09T08:09:14.159Z,76.20
2018-08-09T08:10:14.180Z,76.10
2018-08-09T08:11:14.150Z,75.43
2018-08-09T08:12:14.177Z,75.53
2018-08-09T08:13:14.154Z,75.72
2018-08-09T08:14:14.151Z,75.05
2018-08-09T08:15:14.149Z,74.95
2018-08-09T08:16:14.149Z,74.95
2018-08-09T08:17:14.152Z,75.14
2018-08-09T08:18:14.159Z,75.14
2018-08-09T08:19:14.149Z,75.82
2018-08-09T08:20:14.156Z,75.43
2018-08-09T08:21:14.160Z,75.43
2018-08-09T08:22:14.149Z,75.72
2018-08-09T08:23:14.147Z,76.50
2018-08-09T08:24:14.150Z,76.10
2018-08-09T08:25:14.152Z,75.82
2018-08-09T08:26:14.147Z,75.72
2018-08-09T08:27:14.179Z,75.24
2018-08-09T08:28:14.156Z,75.72
2018-08-09T08:29:14.148Z,75.92
2018-08-09T08:30:14.184Z,76.30
2018-08-09T08:31:14.147Z,75.85
2018-08-09T08:32:14.147Z,76.92
2018-08-09T08:33:14.148Z,76.15
2018-08-09T08:34:14.149Z,76.24
2018-08-09T08:35:14.154Z,75.92
2018-08-09T08:36:14.154Z,76.59
2018-08-09T08:37:14.145Z,76.82
2018-08-09T08:38:14.148Z,76.24
2018-08-09T08:39:14.148Z,76.28
2018-08-09T08:40:14.160Z,75.64
2018-08-09T08:41:14.172Z,75.16
2018-08-09T08:42:14.159Z,74.71
2018-08-09T08:43:14.158Z,73.88
2018-08-09T08:44:14.170Z,73.88
2018-08-09T08:45:14.147Z,73.88
2018-08-09T08:46:14.152Z,74.36
2018-08-09T08:47:14.158Z,74.27
2018-08-09T08:48:14.198Z,73.53
2018-08-09T08:49:14.176Z,73.08
2018-08-09T08:50:14.169Z,72.50
2018-08-09T08:51:14.161Z,72.98
2018-08-09T08:52:14.164Z,71.86
2018-08-09T08:53:14.222Z,72.21
2018-08-09T08:54:14.170Z,72.30
2018-08-09T08:55:14.263Z,72.50
2018-08-09T08:56:14.171Z,72.50
2018-08-09T08:57:14.175Z,73.37
2018-08-09T08:58:14.181Z,73.47
2018-08-09T08:59:14.202Z,73.08
2018-08-09T09:00:14.193Z,73.08
2018-08-09T09:01:14.191Z,73.04
2018-08-09T09:02:14.201Z,73.63
2018-08-09T09:03:14.241Z,74.34
2018-08-09T09:04:14.251Z,73.57
2018-08-09T09:05:14.359Z,73.47
2018-08-09T09:06:14.227Z,73.47
2018-08-09T09:07:14.225Z,73.85
2018-08-09T09:08:14.254Z,73.37
2018-08-09T09:09:14.236Z,73.47
2018-08-09T09:10:14.218Z,73.66
2018-08-09T09:11:14.219Z,73.57
2018-08-09T09:12:14.224Z,73.72
2018-08-09T09:13:14.226Z,74.88
2018-08-09T09:14:14.227Z,74.40
2018-08-09T09:15:14.228Z,74.73
2018-08-09T09:16:14.238Z,74.24
2018-08-09T09:17:14.236Z,73.41
2018-08-09T09:18:14.240Z,73.35
2018-08-09T09:19:14.297Z,72.09
2018-08-09T09:20:14.243Z,71.80
2018-08-09T09:21:14.249Z,72.44
2018-08-09T09:22:14.257Z,72.92
2018-08-09T09:23:14.252Z,72.53
2018-08-09T09:24:14.255Z,72.73
2018-08-09T09:25:14.264Z,72.92
2018-08-09T09:26:14.260Z,73.66
2018-08-09T09:27:14.267Z,73.47
2018-08-09T09:28:16.138Z,73.85
2018-08-09T09:29:14.275Z,74.49
2018-08-09T09:30:14.272Z,74.98
2018-08-09T09:31:14.277Z,74.88
2018-08-09T09:32:14.289Z,75.17
2018-08-09T09:33:14.306Z,75.37
2018-08-09T09:34:14.281Z,75.37
2018-08-09T09:35:14.286Z,75.27
2018-08-09T09:36:14.288Z,75.37
2018-08-09T09:37:14.294Z,75.46
2018-08-09T09:38:14.291Z,75.46
2018-08-09T09:39:14.299Z,75.07
2018-08-09T09:40:14.298Z,75.95
2018-08-09T09:41:15.194Z,75.17
2018-08-09T09:42:15.151Z,75.56
2018-08-09T09:43:14.304Z,74.88
2018-08-09T09:44:14.306Z,75.98
2018-08-09T09:45:14.321Z,75.02
2018-08-09T09:46:14.315Z,74.76
2018-08-09T09:47:14.314Z,74.18
2018-08-09T09:48:14.313Z,74.66
2018-08-09T09:49:14.320Z,74.38
2018-08-09T09:50:14.319Z,74.60
2018-08-09T09:51:14.326Z,73.58
2018-08-09T09:52:14.329Z,72.55
2018-08-09T09:53:14.333Z,72.49
2018-08-09T09:54:14.331Z,71.61
2018-08-09T09:55:14.336Z,71.03
2018-08-09T09:56:14.338Z,70.51
2018-08-09T09:57:14.350Z,71.77
2018-08-09T09:58:14.350Z,71.73
2018-08-09T09:59:14.357Z,71.58
2018-08-09T10:00:14.380Z,71.12
2018-08-09T10:01:14.365Z,70.48
2018-08-09T10:02:14.369Z,70.87
2018-08-09T10:03:14.371Z,69.93
2018-08-09T10:04:14.377Z,69.09
2018-08-09T10:05:14.382Z,67.73
2018-08-09T10:06:14.392Z,69.06
2018-08-09T10:07:14.410Z,69.12
2018-08-09T10:08:14.407Z,69.70
2018-08-09T10:09:14.402Z,69.60
2018-08-09T10:10:14.407Z,69.51
2018-08-09T10:11:14.413Z,69.80
2018-08-09T10:12:14.455Z,70.19
2018-08-09T10:13:14.425Z,70.15
2018-08-09T10:14:14.446Z,70.70
2018-08-09T10:15:14.433Z,71.38
2018-08-09T10:16:14.437Z,71.86
2018-08-09T10:17:14.446Z,71.96
2018-08-09T10:18:14.452Z,71.80
2018-08-09T10:19:14.461Z,71.06
2018-08-09T10:20:14.474Z,70.73
2018-08-09T10:21:14.467Z,70.77
2018-08-09T10:22:14.492Z,70.93
2018-08-09T10:23:14.490Z,71.26
2018-08-09T10:24:14.501Z,70.87
2018-08-09T10:25:14.478Z,70.39
2018-08-09T10:26:14.501Z,70.22
2018-08-09T10:27:14.487Z,69.74
2018-08-09T10:28:14.498Z,69.06
2018-08-09T10:29:14.504Z,69.35
2018-08-09T10:30:14.503Z,69.64
2018-08-09T10:31:14.525Z,68.99
2018-08-09T10:32:14.530Z,68.32
2018-08-09T10:33:14.566Z,68.80
2018-08-09T10:34:14.527Z,68.99
2018-08-09T10:35:14.542Z,68.02
2018-08-09T10:36:14.540Z,68.90
2018-08-09T10:37:14.546Z,68.74
2018-08-09T10:38:14.548Z,66.34
2018-08-09T10:39:14.552Z,66.05
2018-08-09T10:40:14.559Z,66.37
2018-08-09T10:41:14.570Z,68.32
2018-08-09T10:42:14.581Z,68.57
2018-08-09T10:43:14.580Z,68.80
2018-08-09T10:44:14.590Z,67.83
2018-08-09T10:45:14.594Z,67.83
2018-08-09T10:46:14.597Z,67.44
2018-08-09T10:47:14.601Z,67.83
2018-08-09T10:48:14.620Z,67.67
2018-08-09T10:49:14.622Z,66.93
2018-08-09T10:50:14.624Z,66.69
2018-08-09T10:51:14.640Z,66.63
2018-08-09T10:52:14.638Z,65.95
2018-08-09T10:53:14.643Z,65.59
2018-08-09T10:54:14.655Z,64.91
2018-08-09T10:55:14.660Z,65.43
2018-08-09T10:56:14.674Z,63.61
2018-08-09T10:57:14.676Z,61.60
2018-08-09T10:58:14.686Z,61.37
2018-08-09T10:59:14.690Z,61.86
2018-08-09T11:00:14.692Z,62.44
2018-08-09T11:01:14.703Z,62.05
2018-08-09T11:02:14.710Z,62.54
2018-08-09T11:03:14.715Z,63.22
2018-08-09T11:04:14.720Z,63.12
2018-08-09T11:05:14.728Z,62.25
2018-08-09T11:06:14.737Z,62.44
2018-08-09T11:07:14.746Z,62.15
2018-08-09T11:08:14.752Z,61.76
2018-08-09T11:09:14.761Z,62.35
2018-08-09T11:10:14.772Z,61.66
2018-08-09T11:11:14.776Z,62.93
2018-08-09T11:12:14.783Z,61.93
2018-08-09T11:13:14.791Z,62.99
2018-08-09T11:14:15.711Z,63.19
2018-08-09T11:15:14.805Z,62.32
2018-08-09T11:16:14.812Z,62.35
2018-08-09T11:17:14.816Z,62.35
2018-08-09T11:18:14.824Z,62.44
2018-08-09T11:19:14.829Z,61.08
2018-08-09T11:20:14.834Z,60.98
2018-08-09T11:21:14.845Z,62.25
2018-08-09T11:22:14.847Z,61.76
2018-08-09T11:23:14.852Z,61.27
2018-08-09T11:24:14.862Z,62.35
2018-08-09T11:25:14.871Z,62.44
2018-08-09T11:26:14.876Z,62.12
2018-08-09T11:27:14.881Z,62.25
2018-08-09T11:28:14.887Z,61.57
2018-08-09T11:29:14.903Z,61.47
2018-08-09T11:30:14.933Z,61.86
2018-08-09T11:31:14.916Z,60.98
2018-08-09T11:32:14.917Z,62.35
2018-08-09T11:33:14.922Z,62.44
2018-08-09T11:34:14.926Z,61.21
2018-08-09T11:35:14.934Z,61.50
2018-08-09T11:36:14.941Z,61.08
2018-08-09T11:37:14.950Z,61.76
2018-08-09T11:38:14.961Z,61.69
2018-08-09T11:39:14.963Z,61.50
2018-08-09T11:40:14.978Z,61.76
2018-08-09T11:41:14.985Z,61.11
2018-08-09T11:42:15.002Z,61.54
2018-08-09T11:43:15.018Z,61.63
2018-08-09T11:44:15.004Z,61.93
2018-08-09T11:45:15.023Z,61.73
2018-08-09T11:46:15.020Z,61.83
2018-08-09T11:47:15.046Z,62.29
2018-08-09T11:48:15.036Z,62.77
2018-08-09T11:49:15.080Z,63.65
2018-08-09T11:50:15.044Z,63.35
2018-08-09T11:51:15.059Z,63.94
2018-08-09T11:52:15.068Z,63.16
2018-08-09T11:53:15.076Z,63.87
2018-08-09T11:54:15.079Z,63.29
2018-08-09T11:55:15.083Z,63.09
2018-08-09T11:56:15.161Z,62.70
2018-08-09T11:57:15.163Z,63.42
2018-08-09T11:58:15.105Z,62.15
2018-08-09T11:59:15.111Z,61.11
2018-08-09T12:00:15.149Z,61.40
2018-08-09T12:01:15.130Z,60.75
2018-08-09T12:02:15.148Z,59.87
2018-08-09T12:03:15.162Z,59.77
2018-08-09T12:04:15.148Z,59.67
2018-08-09T12:05:15.160Z,59.67
2018-08-09T12:06:15.200Z,58.77
2018-08-09T12:07:15.176Z,60.23
2018-08-09T12:08:15.178Z,60.00
2018-08-09T12:09:15.199Z,60.98
2018-08-09T12:10:15.193Z,60.98
2018-08-09T12:11:15.201Z,61.05
2018-08-09T12:12:15.213Z,61.83
2018-08-09T12:13:15.213Z,62.19
2018-08-09T12:14:15.299Z,62.32
2018-08-09T12:15:15.260Z,62.70
2018-08-09T12:16:15.243Z,62.22
2018-08-09T12:17:15.243Z,61.66
2018-08-09T12:18:15.268Z,61.93
2018-08-09T12:19:15.259Z,62.12
2018-08-09T12:20:15.263Z,62.12
2018-08-09T12:21:15.270Z,62.32
2018-08-09T12:22:15.275Z,62.32
2018-08-09T12:23:15.287Z,62.93
2018-08-09T12:24:15.303Z,63.22
2018-08-09T12:25:15.312Z,61.66
2018-08-09T12:26:15.317Z,62.44
2018-08-09T12:27:15.307Z,61.96
2018-08-09T12:28:15.315Z,62.05
2018-08-09T12:29:15.355Z,62.47
2018-08-09T12:30:15.391Z,62.18
2018-08-09T12:31:15.356Z,61.21
2018-08-09T12:32:15.352Z,61.60
2018-08-09T12:33:15.382Z,61.99
2018-08-09T12:34:15.367Z,61.30
2018-08-09T12:35:15.366Z,62.28
2018-08-09T12:36:15.367Z,61.21
2018-08-09T12:37:15.402Z,61.60
2018-08-09T12:38:15.392Z,61.53
2018-08-09T12:39:16.350Z,61.89
2018-08-09T12:40:15.415Z,61.69
2018-08-09T12:41:15.399Z,61.82
2018-08-09T12:42:15.427Z,62.31
2018-08-09T12:43:15.426Z,62.21
2018-08-09T12:44:15.420Z,61.72
2018-08-09T12:45:15.545Z,62.57
2018-08-09T12:46:15.429Z,63.15
2018-08-09T12:47:15.434Z,63.25
2018-08-09T12:48:15.432Z,63.74
2018-08-09T12:49:15.452Z,63.35
2018-08-09T12:50:15.474Z,63.74
2018-08-09T12:51:15.461Z,63.93
2018-08-09T12:52:15.462Z,64.49